sensor_id;sensor_type;location;lat;lon;timestamp;P1;durP1;ratioP1;P2;durP2;ratioP2
32876;SDS011;19226;51.600;8.034;2024-01-30T00:02:34;0.17;;;0.17;;
32876;SDS011;19226;51.600;8.034;2024-01-30T00:05:18;0.20;;;0.20;;
32876;SDS011;19226;51.600;8.034;2024-01-30T00:08:03;0.20;;;0.20;;
32876;SDS011;19226;51.600;8.034;2024-01-30T00:10:48;0.20;;;0.20;;
32876;SDS011;19226;51.600;8.034;2024-01-30T00:13:32;0.10;;;0.10;;
32876;SDS011;19226;51.600;8.034;2024-01-30T00:16:23;0.10;;;0.10;;
32876;SDS011;19226;51.600;8.034;2024-01-30T00:19:09;0.20;;;0.20;;
32876;SDS011;19226;51.600;8.034;2024-01-30T00:21:53;0.20;;;0.20;;
32876;SDS011;19226;51.600;8.034;2024-01-30T00:24:38;0.10;;;0.10;;
32876;SDS011;19226;51.600;8.034;2024-01-30T00:27:22;0.20;;;0.20;;
32876;SDS011;19226;51.600;8.034;2024-01-30T00:30:07;0.10;;;0.10;;
32876;SDS011;19226;51.600;8.034;2024-01-30T00:32:53;0.20;;;0.20;;
32876;SDS011;19226;51.600;8.034;2024-01-30T00:35:38;0.20;;;0.20;;
32876;SDS011;19226;51.600;8.034;2024-01-30T00:38:22;0.20;;;0.20;;
32876;SDS011;19226;51.600;8.034;2024-01-30T00:41:08;0.20;;;0.20;;
32876;SDS011;19226;51.600;8.034;2024-01-30T00:43:53;0.20;;;0.20;;
32876;SDS011;19226;51.600;8.034;2024-01-30T00:46:37;0.20;;;0.20;;
32876;SDS011;19226;51.600;8.034;2024-01-30T00:49:22;0.20;;;0.20;;
32876;SDS011;19226;51.600;8.034;2024-01-30T00:52:06;0.20;;;0.20;;
32876;SDS011;19226;51.600;8.034;2024-01-30T00:54:51;0.20;;;0.20;;
32876;SDS011;19226;51.600;8.034;2024-01-30T00:57:36;0.20;;;0.20;;
32876;SDS011;19226;51.600;8.034;2024-01-30T01:00:20;0.20;;;0.20;;
32876;SDS011;19226;51.600;8.034;2024-01-30T01:03:05;0.20;;;0.20;;
32876;SDS011;19226;51.600;8.034;2024-01-30T01:05:50;0.20;;;0.20;;
32876;SDS011;19226;51.600;8.034;2024-01-30T01:08:35;0.10;;;0.10;;
32876;SDS011;19226;51.600;8.034;2024-01-30T01:11:20;0.20;;;0.20;;
32876;SDS011;19226;51.600;8.034;2024-01-30T01:14:04;0.20;;;0.20;;
32876;SDS011;19226;51.600;8.034;2024-01-30T01:16:49;0.17;;;0.17;;
32876;SDS011;19226;51.600;8.034;2024-01-30T01:19:33;0.20;;;0.20;;
32876;SDS011;19226;51.600;8.034;2024-01-30T01:22:18;0.15;;;0.15;;
32876;SDS011;19226;51.600;8.034;2024-01-30T01:25:02;0.20;;;0.20;;
32876;SDS011;19226;51.600;8.034;2024-01-30T01:27:47;0.20;;;0.20;;
32876;SDS011;19226;51.600;8.034;2024-01-30T01:30:35;0.20;;;0.20;;
32876;SDS011;19226;51.600;8.034;2024-01-30T01:33:20;0.10;;;0.10;;
32876;SDS011;19226;51.600;8.034;2024-01-30T01:36:04;0.10;;;0.10;;
32876;SDS011;19226;51.600;8.034;2024-01-30T01:38:51;0.10;;;0.10;;
32876;SDS011;19226;51.600;8.034;2024-01-30T01:41:36;0.20;;;0.20;;
32876;SDS011;19226;51.600;8.034;2024-01-30T01:44:21;0.20;;;0.20;;
32876;SDS011;19226;51.600;8.034;2024-01-30T01:47:05;0.10;;;0.10;;
32876;SDS011;19226;51.600;8.034;2024-01-30T01:49:50;0.20;;;0.20;;
32876;SDS011;19226;51.600;8.034;2024-01-30T01:52:35;0.10;;;0.10;;
32876;SDS011;19226;51.600;8.034;2024-01-30T01:55:21;0.20;;;0.20;;
32876;SDS011;19226;51.600;8.034;2024-01-30T01:58:08;0.10;;;0.10;;
32876;SDS011;19226;51.600;8.034;2024-01-30T02:00:53;0.10;;;0.10;;
32876;SDS011;19226;51.600;8.034;2024-01-30T02:03:37;0.10;;;0.10;;
32876;SDS011;19226;51.600;8.034;2024-01-30T02:06:22;0.20;;;0.20;;
32876;SDS011;19226;51.600;8.034;2024-01-30T02:09:06;0.10;;;0.10;;
32876;SDS011;19226;51.600;8.034;2024-01-30T02:11:53;0.13;;;0.13;;
32876;SDS011;19226;51.600;8.034;2024-01-30T02:14:45;0.10;;;0.10;;
32876;SDS011;19226;51.600;8.034;2024-01-30T02:17:33;0.20;;;0.20;;
32876;SDS011;19226;51.600;8.034;2024-01-30T02:20:18;0.20;;;0.20;;
32876;SDS011;19226;51.600;8.034;2024-01-30T02:23:03;0.10;;;0.10;;
32876;SDS011;19226;51.600;8.034;2024-01-30T02:25:48;0.20;;;0.20;;
32876;SDS011;19226;51.600;8.034;2024-01-30T02:28:33;0.20;;;0.20;;
32876;SDS011;19226;51.600;8.034;2024-01-30T02:31:18;0.20;;;0.20;;
32876;SDS011;19226;51.600;8.034;2024-01-30T02:34:02;0.20;;;0.20;;
32876;SDS011;19226;51.600;8.034;2024-01-30T02:36:47;0.10;;;0.10;;
32876;SDS011;19226;51.600;8.034;2024-01-30T02:39:31;0.20;;;0.20;;
32876;SDS011;19226;51.600;8.034;2024-01-30T02:42:16;0.20;;;0.20;;
32876;SDS011;19226;51.600;8.034;2024-01-30T02:45:02;0.20;;;0.20;;
32876;SDS011;19226;51.600;8.034;2024-01-30T02:47:46;0.20;;;0.20;;
32876;SDS011;19226;51.600;8.034;2024-01-30T02:50:31;0.20;;;0.20;;
32876;SDS011;19226;51.600;8.034;2024-01-30T02:53:15;0.20;;;0.20;;
32876;SDS011;19226;51.600;8.034;2024-01-30T02:56:00;0.20;;;0.20;;
32876;SDS011;19226;51.600;8.034;2024-01-30T02:58:44;0.20;;;0.20;;
32876;SDS011;19226;51.600;8.034;2024-01-30T03:01:28;0.20;;;0.20;;
32876;SDS011;19226;51.600;8.034;2024-01-30T03:04:14;0.20;;;0.20;;
32876;SDS011;19226;51.600;8.034;2024-01-30T03:06:58;0.20;;;0.20;;
32876;SDS011;19226;51.600;8.034;2024-01-30T03:09:44;0.20;;;0.20;;
32876;SDS011;19226;51.600;8.034;2024-01-30T03:12:32;0.20;;;0.20;;
32876;SDS011;19226;51.600;8.034;2024-01-30T03:15:17;0.10;;;0.10;;
32876;SDS011;19226;51.600;8.034;2024-01-30T03:18:02;0.20;;;0.20;;
32876;SDS011;19226;51.600;8.034;2024-01-30T03:20:50;0.10;;;0.10;;
32876;SDS011;19226;51.600;8.034;2024-01-30T03:23:34;0.20;;;0.20;;
32876;SDS011;19226;51.600;8.034;2024-01-30T03:26:18;0.20;;;0.20;;
32876;SDS011;19226;51.600;8.034;2024-01-30T03:29:03;0.20;;;0.20;;
32876;SDS011;19226;51.600;8.034;2024-01-30T03:31:48;0.10;;;0.10;;
32876;SDS011;19226;51.600;8.034;2024-01-30T03:34:32;0.10;;;0.10;;
32876;SDS011;19226;51.600;8.034;2024-01-30T03:37:17;0.20;;;0.20;;
32876;SDS011;19226;51.600;8.034;2024-01-30T03:40:02;0.20;;;0.20;;
32876;SDS011;19226;51.600;8.034;2024-01-30T03:42:47;0.10;;;0.10;;
32876;SDS011;19226;51.600;8.034;2024-01-30T03:45:32;0.20;;;0.20;;
32876;SDS011;19226;51.600;8.034;2024-01-30T03:48:16;0.10;;;0.10;;
32876;SDS011;19226;51.600;8.034;2024-01-30T03:51:01;0.20;;;0.20;;
32876;SDS011;19226;51.600;8.034;2024-01-30T03:53:45;0.17;;;0.17;;
32876;SDS011;19226;51.600;8.034;2024-01-30T03:56:30;0.20;;;0.20;;
32876;SDS011;19226;51.600;8.034;2024-01-30T03:59:15;0.20;;;0.20;;
32876;SDS011;19226;51.600;8.034;2024-01-30T04:02:03;0.10;;;0.10;;
32876;SDS011;19226;51.600;8.034;2024-01-30T04:04:47;0.20;;;0.20;;
32876;SDS011;19226;51.600;8.034;2024-01-30T04:07:32;0.20;;;0.20;;
32876;SDS011;19226;51.600;8.034;2024-01-30T04:10:17;0.10;;;0.10;;
32876;SDS011;19226;51.600;8.034;2024-01-30T04:13:02;0.10;;;0.10;;
32876;SDS011;19226;51.600;8.034;2024-01-30T04:15:46;0.10;;;0.10;;
32876;SDS011;19226;51.600;8.034;2024-01-30T04:18:30;0.10;;;0.10;;
32876;SDS011;19226;51.600;8.034;2024-01-30T04:21:16;0.20;;;0.20;;
32876;SDS011;19226;51.600;8.034;2024-01-30T04:24:00;0.15;;;0.15;;
32876;SDS011;19226;51.600;8.034;2024-01-30T04:26:45;0.10;;;0.10;;
32876;SDS011;19226;51.600;8.034;2024-01-30T04:29:29;0.10;;;0.10;;
32876;SDS011;19226;51.600;8.034;2024-01-30T04:32:14;0.20;;;0.20;;
32876;SDS011;19226;51.600;8.034;2024-01-30T04:34:58;0.20;;;0.20;;
32876;SDS011;19226;51.600;8.034;2024-01-30T04:38:01;0.20;;;0.20;;
32876;SDS011;19226;51.600;8.034;2024-01-30T04:40:46;0.20;;;0.20;;
32876;SDS011;19226;51.600;8.034;2024-01-30T04:43:30;0.20;;;0.20;;
32876;SDS011;19226;51.600;8.034;2024-01-30T04:46:15;0.20;;;0.20;;
32876;SDS011;19226;51.600;8.034;2024-01-30T04:48:59;0.20;;;0.20;;
32876;SDS011;19226;51.600;8.034;2024-01-30T04:51:43;0.20;;;0.20;;
32876;SDS011;19226;51.600;8.034;2024-01-30T04:54:28;0.20;;;0.20;;
32876;SDS011;19226;51.600;8.034;2024-01-30T04:57:12;0.10;;;0.10;;
32876;SDS011;19226;51.600;8.034;2024-01-30T04:59:57;0.20;;;0.20;;
32876;SDS011;19226;51.600;8.034;2024-01-30T05:02:41;0.17;;;0.17;;
32876;SDS011;19226;51.600;8.034;2024-01-30T05:05:26;0.20;;;0.20;;
32876;SDS011;19226;51.600;8.034;2024-01-30T05:08:10;0.20;;;0.20;;
32876;SDS011;19226;51.600;8.034;2024-01-30T05:10:55;0.20;;;0.20;;
32876;SDS011;19226;51.600;8.034;2024-01-30T05:13:39;0.20;;;0.20;;
32876;SDS011;19226;51.600;8.034;2024-01-30T05:16:24;0.20;;;0.20;;
32876;SDS011;19226;51.600;8.034;2024-01-30T05:19:09;0.20;;;0.20;;
32876;SDS011;19226;51.600;8.034;2024-01-30T05:21:54;0.20;;;0.20;;
32876;SDS011;19226;51.600;8.034;2024-01-30T05:24:39;0.20;;;0.20;;
32876;SDS011;19226;51.600;8.034;2024-01-30T05:27:24;0.20;;;0.20;;
32876;SDS011;19226;51.600;8.034;2024-01-30T05:30:08;0.17;;;0.17;;
32876;SDS011;19226;51.600;8.034;2024-01-30T05:32:53;0.20;;;0.20;;
32876;SDS011;19226;51.600;8.034;2024-01-30T05:35:38;0.20;;;0.20;;
32876;SDS011;19226;51.600;8.034;2024-01-30T05:38:22;0.20;;;0.20;;
32876;SDS011;19226;51.600;8.034;2024-01-30T05:41:06;0.20;;;0.20;;
32876;SDS011;19226;51.600;8.034;2024-01-30T05:43:52;0.20;;;0.20;;
32876;SDS011;19226;51.600;8.034;2024-01-30T05:46:37;0.20;;;0.20;;
32876;SDS011;19226;51.600;8.034;2024-01-30T05:49:22;0.20;;;0.20;;
32876;SDS011;19226;51.600;8.034;2024-01-30T05:52:06;0.20;;;0.20;;
32876;SDS011;19226;51.600;8.034;2024-01-30T05:54:51;0.20;;;0.20;;
32876;SDS011;19226;51.600;8.034;2024-01-30T05:57:35;0.20;;;0.20;;
32876;SDS011;19226;51.600;8.034;2024-01-30T06:00:21;0.20;;;0.20;;
32876;SDS011;19226;51.600;8.034;2024-01-30T06:03:05;0.20;;;0.20;;
32876;SDS011;19226;51.600;8.034;2024-01-30T06:05:50;0.20;;;0.20;;
32876;SDS011;19226;51.600;8.034;2024-01-30T06:08:34;0.20;;;0.20;;
32876;SDS011;19226;51.600;8.034;2024-01-30T06:11:19;0.17;;;0.17;;
32876;SDS011;19226;51.600;8.034;2024-01-30T06:14:03;0.20;;;0.20;;
32876;SDS011;19226;51.600;8.034;2024-01-30T06:16:48;0.20;;;0.20;;
32876;SDS011;19226;51.600;8.034;2024-01-30T06:19:32;0.20;;;0.20;;
32876;SDS011;19226;51.600;8.034;2024-01-30T06:22:17;0.20;;;0.20;;
32876;SDS011;19226;51.600;8.034;2024-01-30T06:25:02;0.20;;;0.20;;
32876;SDS011;19226;51.600;8.034;2024-01-30T06:27:46;0.20;;;0.20;;
32876;SDS011;19226;51.600;8.034;2024-01-30T06:30:31;0.17;;;0.17;;
32876;SDS011;19226;51.600;8.034;2024-01-30T06:33:15;0.20;;;0.20;;
32876;SDS011;19226;51.600;8.034;2024-01-30T06:36:00;0.20;;;0.20;;
32876;SDS011;19226;51.600;8.034;2024-01-30T06:38:44;0.20;;;0.20;;
32876;SDS011;19226;51.600;8.034;2024-01-30T06:41:29;0.20;;;0.20;;
32876;SDS011;19226;51.600;8.034;2024-01-30T06:44:13;0.20;;;0.20;;
32876;SDS011;19226;51.600;8.034;2024-01-30T06:46:58;0.20;;;0.20;;
32876;SDS011;19226;51.600;8.034;2024-01-30T06:49:43;0.20;;;0.20;;
32876;SDS011;19226;51.600;8.034;2024-01-30T06:52:29;0.20;;;0.20;;
32876;SDS011;19226;51.600;8.034;2024-01-30T06:55:13;0.20;;;0.20;;
32876;SDS011;19226;51.600;8.034;2024-01-30T06:57:58;0.20;;;0.20;;
32876;SDS011;19226;51.600;8.034;2024-01-30T07:00:42;0.20;;;0.20;;
32876;SDS011;19226;51.600;8.034;2024-01-30T07:03:27;0.20;;;0.20;;
32876;SDS011;19226;51.600;8.034;2024-01-30T07:06:11;0.20;;;0.20;;
32876;SDS011;19226;51.600;8.034;2024-01-30T07:08:56;0.20;;;0.20;;
32876;SDS011;19226;51.600;8.034;2024-01-30T07:11:40;0.20;;;0.20;;
32876;SDS011;19226;51.600;8.034;2024-01-30T07:14:25;0.10;;;0.10;;
32876;SDS011;19226;51.600;8.034;2024-01-30T07:17:09;0.20;;;0.20;;
32876;SDS011;19226;51.600;8.034;2024-01-30T07:19:54;0.20;;;0.20;;
32876;SDS011;19226;51.600;8.034;2024-01-30T07:22:39;0.20;;;0.20;;
32876;SDS011;19226;51.600;8.034;2024-01-30T07:25:25;0.10;;;0.10;;
32876;SDS011;19226;51.600;8.034;2024-01-30T07:28:10;0.20;;;0.20;;
32876;SDS011;19226;51.600;8.034;2024-01-30T07:30:56;0.20;;;0.20;;
32876;SDS011;19226;51.600;8.034;2024-01-30T07:33:40;0.20;;;0.20;;
32876;SDS011;19226;51.600;8.034;2024-01-30T07:36:25;0.20;;;0.20;;
32876;SDS011;19226;51.600;8.034;2024-01-30T07:39:10;0.20;;;0.20;;
32876;SDS011;19226;51.600;8.034;2024-01-30T07:41:54;0.20;;;0.20;;
32876;SDS011;19226;51.600;8.034;2024-01-30T07:44:39;0.20;;;0.20;;
32876;SDS011;19226;51.600;8.034;2024-01-30T07:47:24;0.20;;;0.20;;
32876;SDS011;19226;51.600;8.034;2024-01-30T07:50:08;0.20;;;0.20;;
32876;SDS011;19226;51.600;8.034;2024-01-30T07:52:53;0.20;;;0.20;;
32876;SDS011;19226;51.600;8.034;2024-01-30T07:55:39;0.10;;;0.10;;
32876;SDS011;19226;51.600;8.034;2024-01-30T07:58:23;0.10;;;0.10;;
32876;SDS011;19226;51.600;8.034;2024-01-30T08:01:08;0.20;;;0.20;;
32876;SDS011;19226;51.600;8.034;2024-01-30T08:03:52;0.10;;;0.10;;
32876;SDS011;19226;51.600;8.034;2024-01-30T08:06:39;0.10;;;0.10;;
32876;SDS011;19226;51.600;8.034;2024-01-30T08:09:24;0.10;;;0.10;;
32876;SDS011;19226;51.600;8.034;2024-01-30T08:12:09;0.20;;;0.20;;
32876;SDS011;19226;51.600;8.034;2024-01-30T08:14:53;0.20;;;0.20;;
32876;SDS011;19226;51.600;8.034;2024-01-30T08:17:38;0.10;;;0.10;;
32876;SDS011;19226;51.600;8.034;2024-01-30T08:20:23;0.10;;;0.10;;
32876;SDS011;19226;51.600;8.034;2024-01-30T08:23:07;0.10;;;0.10;;
32876;SDS011;19226;51.600;8.034;2024-01-30T08:25:52;0.10;;;0.10;;
32876;SDS011;19226;51.600;8.034;2024-01-30T08:28:37;0.20;;;0.20;;
32876;SDS011;19226;51.600;8.034;2024-01-30T08:31:21;0.10;;;0.10;;
32876;SDS011;19226;51.600;8.034;2024-01-30T08:34:06;0.17;;;0.17;;
32876;SDS011;19226;51.600;8.034;2024-01-30T08:36:51;0.10;;;0.10;;
32876;SDS011;19226;51.600;8.034;2024-01-30T08:39:35;0.10;;;0.10;;
32876;SDS011;19226;51.600;8.034;2024-01-30T08:42:20;0.10;;;0.10;;
32876;SDS011;19226;51.600;8.034;2024-01-30T08:45:06;0.17;;;0.17;;
32876;SDS011;19226;51.600;8.034;2024-01-30T08:47:53;0.10;;;0.10;;
32876;SDS011;19226;51.600;8.034;2024-01-30T08:50:37;0.10;;;0.10;;
32876;SDS011;19226;51.600;8.034;2024-01-30T08:53:22;0.10;;;0.10;;
32876;SDS011;19226;51.600;8.034;2024-01-30T08:56:06;0.17;;;0.17;;
32876;SDS011;19226;51.600;8.034;2024-01-30T08:58:51;0.10;;;0.10;;
32876;SDS011;19226;51.600;8.034;2024-01-30T09:01:35;0.15;;;0.15;;
32876;SDS011;19226;51.600;8.034;2024-01-30T09:04:20;0.10;;;0.10;;
32876;SDS011;19226;51.600;8.034;2024-01-30T09:07:05;0.10;;;0.10;;
32876;SDS011;19226;51.600;8.034;2024-01-30T09:09:53;0.20;;;0.20;;
32876;SDS011;19226;51.600;8.034;2024-01-30T09:12:37;0.20;;;0.20;;
32876;SDS011;19226;51.600;8.034;2024-01-30T09:15:22;0.15;;;0.15;;
32876;SDS011;19226;51.600;8.034;2024-01-30T09:18:06;0.10;;;0.10;;
32876;SDS011;19226;51.600;8.034;2024-01-30T09:20:51;0.10;;;0.10;;
32876;SDS011;19226;51.600;8.034;2024-01-30T09:23:35;0.10;;;0.10;;
32876;SDS011;19226;51.600;8.034;2024-01-30T09:26:20;0.10;;;0.10;;
32876;SDS011;19226;51.600;8.034;2024-01-30T09:29:04;0.10;;;0.10;;
32876;SDS011;19226;51.600;8.034;2024-01-30T09:31:49;0.10;;;0.10;;
32876;SDS011;19226;51.600;8.034;2024-01-30T09:34:33;0.10;;;0.10;;
32876;SDS011;19226;51.600;8.034;2024-01-30T09:37:18;0.10;;;0.10;;
32876;SDS011;19226;51.600;8.034;2024-01-30T09:40:03;0.10;;;0.10;;
32876;SDS011;19226;51.600;8.034;2024-01-30T09:42:49;0.10;;;0.10;;
32876;SDS011;19226;51.600;8.034;2024-01-30T09:45:34;0.10;;;0.10;;
32876;SDS011;19226;51.600;8.034;2024-01-30T09:48:19;0.10;;;0.10;;
32876;SDS011;19226;51.600;8.034;2024-01-30T09:51:03;0.10;;;0.10;;
32876;SDS011;19226;51.600;8.034;2024-01-30T09:53:49;0.10;;;0.10;;
32876;SDS011;19226;51.600;8.034;2024-01-30T09:56:33;0.10;;;0.10;;
32876;SDS011;19226;51.600;8.034;2024-01-30T09:59:18;0.10;;;0.10;;
32876;SDS011;19226;51.600;8.034;2024-01-30T10:02:02;0.10;;;0.10;;
32876;SDS011;19226;51.600;8.034;2024-01-30T10:04:48;0.10;;;0.10;;
32876;SDS011;19226;51.600;8.034;2024-01-30T10:07:34;0.10;;;0.10;;
32876;SDS011;19226;51.600;8.034;2024-01-30T10:10:18;0.10;;;0.10;;
32876;SDS011;19226;51.600;8.034;2024-01-30T10:13:05;0.10;;;0.10;;
32876;SDS011;19226;51.600;8.034;2024-01-30T10:15:49;0.10;;;0.10;;
32876;SDS011;19226;51.600;8.034;2024-01-30T10:18:35;0.10;;;0.10;;
32876;SDS011;19226;51.600;8.034;2024-01-30T10:21:20;0.10;;;0.10;;
32876;SDS011;19226;51.600;8.034;2024-01-30T10:24:05;0.10;;;0.10;;
32876;SDS011;19226;51.600;8.034;2024-01-30T10:26:50;0.10;;;0.10;;
32876;SDS011;19226;51.600;8.034;2024-01-30T10:29:34;0.10;;;0.10;;
32876;SDS011;19226;51.600;8.034;2024-01-30T10:32:21;0.10;;;0.10;;
32876;SDS011;19226;51.600;8.034;2024-01-30T10:35:06;0.10;;;0.10;;
32876;SDS011;19226;51.600;8.034;2024-01-30T10:37:50;0.10;;;0.10;;
32876;SDS011;19226;51.600;8.034;2024-01-30T10:40:36;0.10;;;0.10;;
32876;SDS011;19226;51.600;8.034;2024-01-30T10:43:22;0.10;;;0.10;;
32876;SDS011;19226;51.600;8.034;2024-01-30T10:46:18;0.10;;;0.10;;
32876;SDS011;19226;51.600;8.034;2024-01-30T10:49:04;0.10;;;0.10;;
32876;SDS011;19226;51.600;8.034;2024-01-30T10:51:50;0.10;;;0.10;;
32876;SDS011;19226;51.600;8.034;2024-01-30T10:54:36;0.10;;;0.10;;
32876;SDS011;19226;51.600;8.034;2024-01-30T10:57:23;0.10;;;0.10;;
32876;SDS011;19226;51.600;8.034;2024-01-30T11:00:10;0.10;;;0.10;;
32876;SDS011;19226;51.600;8.034;2024-01-30T11:02:56;0.00;;;0.00;;
32876;SDS011;19226;51.600;8.034;2024-01-30T11:05:41;0.10;;;0.10;;
32876;SDS011;19226;51.600;8.034;2024-01-30T11:08:25;0.10;;;0.10;;
32876;SDS011;19226;51.600;8.034;2024-01-30T11:11:12;0.10;;;0.10;;
32876;SDS011;19226;51.600;8.034;2024-01-30T11:14:00;0.00;;;0.00;;
32876;SDS011;19226;51.600;8.034;2024-01-30T11:16:45;0.00;;;0.00;;
32876;SDS011;19226;51.600;8.034;2024-01-30T11:19:30;0.10;;;0.10;;
32876;SDS011;19226;51.600;8.034;2024-01-30T11:22:20;0.00;;;0.00;;
32876;SDS011;19226;51.600;8.034;2024-01-30T11:25:04;0.10;;;0.10;;
32876;SDS011;19226;51.600;8.034;2024-01-30T11:27:50;0.08;;;0.08;;
32876;SDS011;19226;51.600;8.034;2024-01-30T11:30:37;0.10;;;0.10;;
32876;SDS011;19226;51.600;8.034;2024-01-30T11:33:29;0.10;;;0.10;;
32876;SDS011;19226;51.600;8.034;2024-01-30T11:36:14;0.00;;;0.00;;
32876;SDS011;19226;51.600;8.034;2024-01-30T11:43:06;0.10;;;0.10;;
32876;SDS011;19226;51.600;8.034;2024-01-30T11:45:52;0.00;;;0.00;;
32876;SDS011;19226;51.600;8.034;2024-01-30T11:48:37;0.00;;;0.00;;
32876;SDS011;19226;51.600;8.034;2024-01-30T11:51:21;0.00;;;0.00;;
32876;SDS011;19226;51.600;8.034;2024-01-30T11:54:06;0.00;;;0.00;;
32876;SDS011;19226;51.600;8.034;2024-01-30T11:56:51;0.10;;;0.10;;
32876;SDS011;19226;51.600;8.034;2024-01-30T11:59:36;0.10;;;0.10;;
32876;SDS011;19226;51.600;8.034;2024-01-30T12:02:20;0.00;;;0.00;;
32876;SDS011;19226;51.600;8.034;2024-01-30T12:05:08;0.10;;;0.10;;
32876;SDS011;19226;51.600;8.034;2024-01-30T12:07:55;0.00;;;0.00;;
32876;SDS011;19226;51.600;8.034;2024-01-30T12:10:43;0.00;;;0.00;;
32876;SDS011;19226;51.600;8.034;2024-01-30T12:13:27;0.00;;;0.00;;
32876;SDS011;19226;51.600;8.034;2024-01-30T12:16:27;0.00;;;0.00;;
32876;SDS011;19226;51.600;8.034;2024-01-30T12:19:20;0.05;;;0.05;;
32876;SDS011;19226;51.600;8.034;2024-01-30T12:22:08;0.10;;;0.10;;
32876;SDS011;19226;51.600;8.034;2024-01-30T12:24:55;0.00;;;0.00;;
32876;SDS011;19226;51.600;8.034;2024-01-30T12:27:39;0.00;;;0.00;;
32876;SDS011;19226;51.600;8.034;2024-01-30T12:30:27;0.00;;;0.00;;
32876;SDS011;19226;51.600;8.034;2024-01-30T12:33:16;0.10;;;0.10;;
32876;SDS011;19226;51.600;8.034;2024-01-30T12:36:02;0.00;;;0.00;;
32876;SDS011;19226;51.600;8.034;2024-01-30T12:38:47;0.00;;;0.00;;
32876;SDS011;19226;51.600;8.034;2024-01-30T12:41:31;0.00;;;0.00;;
32876;SDS011;19226;51.600;8.034;2024-01-30T12:44:16;0.00;;;0.00;;
32876;SDS011;19226;51.600;8.034;2024-01-30T12:47:04;0.00;;;0.00;;
32876;SDS011;19226;51.600;8.034;2024-01-30T12:49:49;0.00;;;0.00;;
32876;SDS011;19226;51.600;8.034;2024-01-30T12:52:37;0.10;;;0.10;;
32876;SDS011;19226;51.600;8.034;2024-01-30T12:55:21;0.00;;;0.00;;
32876;SDS011;19226;51.600;8.034;2024-01-30T12:58:06;0.00;;;0.00;;
32876;SDS011;19226;51.600;8.034;2024-01-30T13:00:50;0.00;;;0.00;;
32876;SDS011;19226;51.600;8.034;2024-01-30T13:03:35;0.00;;;0.00;;
32876;SDS011;19226;51.600;8.034;2024-01-30T13:06:20;0.00;;;0.00;;
32876;SDS011;19226;51.600;8.034;2024-01-30T13:09:06;0.00;;;0.00;;
32876;SDS011;19226;51.600;8.034;2024-01-30T13:11:51;0.00;;;0.00;;
32876;SDS011;19226;51.600;8.034;2024-01-30T13:14:36;0.00;;;0.00;;
32876;SDS011;19226;51.600;8.034;2024-01-30T13:17:20;0.00;;;0.00;;
32876;SDS011;19226;51.600;8.034;2024-01-30T13:20:05;0.00;;;0.00;;
32876;SDS011;19226;51.600;8.034;2024-01-30T13:22:52;0.00;;;0.00;;
32876;SDS011;19226;51.600;8.034;2024-01-30T13:25:36;0.00;;;0.00;;
32876;SDS011;19226;51.600;8.034;2024-01-30T13:28:21;0.00;;;0.00;;
32876;SDS011;19226;51.600;8.034;2024-01-30T13:31:07;0.00;;;0.00;;
32876;SDS011;19226;51.600;8.034;2024-01-30T13:33:51;0.00;;;0.00;;
32876;SDS011;19226;51.600;8.034;2024-01-30T13:36:36;0.08;;;0.08;;
32876;SDS011;19226;51.600;8.034;2024-01-30T13:39:20;0.00;;;0.00;;
32876;SDS011;19226;51.600;8.034;2024-01-30T13:42:05;0.00;;;0.00;;
32876;SDS011;19226;51.600;8.034;2024-01-30T13:44:50;0.00;;;0.00;;
32876;SDS011;19226;51.600;8.034;2024-01-30T13:47:34;0.00;;;0.00;;
32876;SDS011;19226;51.600;8.034;2024-01-30T13:50:18;0.00;;;0.00;;
32876;SDS011;19226;51.600;8.034;2024-01-30T13:53:03;0.17;;;0.10;;
32876;SDS011;19226;51.600;8.034;2024-01-30T13:55:48;0.00;;;0.00;;
32876;SDS011;19226;51.600;8.034;2024-01-30T13:58:33;0.00;;;0.00;;
32876;SDS011;19226;51.600;8.034;2024-01-30T14:01:18;0.00;;;0.00;;
32876;SDS011;19226;51.600;8.034;2024-01-30T14:04:03;0.00;;;0.00;;
32876;SDS011;19226;51.600;8.034;2024-01-30T14:06:47;0.00;;;0.00;;
32876;SDS011;19226;51.600;8.034;2024-01-30T14:09:32;0.00;;;0.00;;
32876;SDS011;19226;51.600;8.034;2024-01-30T14:12:17;0.00;;;0.00;;
32876;SDS011;19226;51.600;8.034;2024-01-30T14:15:02;0.00;;;0.00;;
32876;SDS011;19226;51.600;8.034;2024-01-30T14:17:46;0.00;;;0.00;;
32876;SDS011;19226;51.600;8.034;2024-01-30T14:20:32;0.00;;;0.00;;
32876;SDS011;19226;51.600;8.034;2024-01-30T14:23:16;0.00;;;0.00;;
32876;SDS011;19226;51.600;8.034;2024-01-30T14:26:02;0.10;;;0.10;;
32876;SDS011;19226;51.600;8.034;2024-01-30T14:28:46;0.00;;;0.00;;
32876;SDS011;19226;51.600;8.034;2024-01-30T14:31:31;0.00;;;0.00;;
32876;SDS011;19226;51.600;8.034;2024-01-30T14:34:15;0.10;;;0.10;;
32876;SDS011;19226;51.600;8.034;2024-01-30T14:37:01;0.00;;;0.00;;
32876;SDS011;19226;51.600;8.034;2024-01-30T14:39:45;0.00;;;0.00;;
32876;SDS011;19226;51.600;8.034;2024-01-30T14:42:31;0.00;;;0.00;;
32876;SDS011;19226;51.600;8.034;2024-01-30T14:45:16;0.00;;;0.00;;
32876;SDS011;19226;51.600;8.034;2024-01-30T14:48:00;0.10;;;0.10;;
32876;SDS011;19226;51.600;8.034;2024-01-30T14:50:45;0.00;;;0.00;;
32876;SDS011;19226;51.600;8.034;2024-01-30T14:53:30;0.00;;;0.00;;
32876;SDS011;19226;51.600;8.034;2024-01-30T14:56:14;0.10;;;0.10;;
32876;SDS011;19226;51.600;8.034;2024-01-30T14:58:59;0.00;;;0.00;;
32876;SDS011;19226;51.600;8.034;2024-01-30T15:01:43;0.00;;;0.00;;
32876;SDS011;19226;51.600;8.034;2024-01-30T15:04:28;0.10;;;0.10;;
32876;SDS011;19226;51.600;8.034;2024-01-30T15:07:13;0.00;;;0.00;;
32876;SDS011;19226;51.600;8.034;2024-01-30T15:09:58;0.08;;;0.08;;
32876;SDS011;19226;51.600;8.034;2024-01-30T15:12:42;0.00;;;0.00;;
32876;SDS011;19226;51.600;8.034;2024-01-30T15:15:27;0.10;;;0.10;;
32876;SDS011;19226;51.600;8.034;2024-01-30T15:18:14;0.03;;;0.03;;
32876;SDS011;19226;51.600;8.034;2024-01-30T15:20:58;0.00;;;0.00;;
32876;SDS011;19226;51.600;8.034;2024-01-30T15:23:43;0.00;;;0.00;;
32876;SDS011;19226;51.600;8.034;2024-01-30T15:26:27;0.03;;;0.03;;
32876;SDS011;19226;51.600;8.034;2024-01-30T15:29:12;0.10;;;0.10;;
32876;SDS011;19226;51.600;8.034;2024-01-30T15:31:56;0.00;;;0.00;;
32876;SDS011;19226;51.600;8.034;2024-01-30T15:34:41;0.00;;;0.00;;
32876;SDS011;19226;51.600;8.034;2024-01-30T15:37:26;0.00;;;0.00;;
32876;SDS011;19226;51.600;8.034;2024-01-30T15:40:11;0.00;;;0.00;;
32876;SDS011;19226;51.600;8.034;2024-01-30T15:42:56;0.00;;;0.00;;
32876;SDS011;19226;51.600;8.034;2024-01-30T15:45:40;0.10;;;0.10;;
32876;SDS011;19226;51.600;8.034;2024-01-30T15:48:25;0.10;;;0.10;;
32876;SDS011;19226;51.600;8.034;2024-01-30T15:51:10;0.10;;;0.10;;
32876;SDS011;19226;51.600;8.034;2024-01-30T15:53:57;0.10;;;0.10;;
32876;SDS011;19226;51.600;8.034;2024-01-30T15:56:42;0.10;;;0.10;;
32876;SDS011;19226;51.600;8.034;2024-01-30T15:59:27;0.00;;;0.00;;
32876;SDS011;19226;51.600;8.034;2024-01-30T16:02:11;0.10;;;0.10;;
32876;SDS011;19226;51.600;8.034;2024-01-30T16:04:57;0.10;;;0.10;;
32876;SDS011;19226;51.600;8.034;2024-01-30T16:07:42;0.10;;;0.10;;
32876;SDS011;19226;51.600;8.034;2024-01-30T16:10:26;0.10;;;0.10;;
32876;SDS011;19226;51.600;8.034;2024-01-30T16:13:11;0.10;;;0.10;;
32876;SDS011;19226;51.600;8.034;2024-01-30T16:15:55;0.00;;;0.00;;
32876;SDS011;19226;51.600;8.034;2024-01-30T16:18:48;0.00;;;0.00;;
32876;SDS011;19226;51.600;8.034;2024-01-30T16:21:33;0.00;;;0.00;;
32876;SDS011;19226;51.600;8.034;2024-01-30T16:24:17;0.10;;;0.10;;
32876;SDS011;19226;51.600;8.034;2024-01-30T16:27:04;0.00;;;0.00;;
32876;SDS011;19226;51.600;8.034;2024-01-30T16:29:48;0.00;;;0.00;;
32876;SDS011;19226;51.600;8.034;2024-01-30T16:32:33;0.00;;;0.00;;
32876;SDS011;19226;51.600;8.034;2024-01-30T16:35:17;0.10;;;0.10;;
32876;SDS011;19226;51.600;8.034;2024-01-30T16:38:02;0.10;;;0.10;;
32876;SDS011;19226;51.600;8.034;2024-01-30T16:40:46;0.00;;;0.00;;